sensor_id;sensor_type;location;lat;lon;timestamp;P1;durP1;ratioP1;P2;durP2;ratioP2
51451;SDS011;37521;52.020;-1.740;2023-08-31T00:01:33;1.10;;;0.55;;
51451;SDS011;37521;52.020;-1.740;2023-08-31T00:04:01;0.88;;;0.60;;
51451;SDS011;37521;52.020;-1.740;2023-08-31T00:06:31;2.10;;;0.52;;
51451;SDS011;37521;52.020;-1.740;2023-08-31T00:08:59;2.85;;;0.77;;
51451;SDS011;37521;52.020;-1.740;2023-08-31T00:11:28;0.73;;;0.60;;
51451;SDS011;37521;52.020;-1.740;2023-08-31T00:13:58;0.57;;;0.57;;
51451;SDS011;37521;52.020;-1.740;2023-08-31T00:16:28;1.30;;;0.80;;
51451;SDS011;37521;52.020;-1.740;2023-08-31T00:18:56;0.88;;;0.80;;
51451;SDS011;37521;52.020;-1.740;2023-08-31T00:21:25;1.90;;;0.82;;
51451;SDS011;37521;52.020;-1.740;2023-08-31T00:23:54;1.73;;;0.70;;
51451;SDS011;37521;52.020;-1.740;2023-08-31T00:26:22;1.15;;;0.60;;
51451;SDS011;37521;52.020;-1.740;2023-08-31T00:28:52;1.95;;;0.50;;
51451;SDS011;37521;52.020;-1.740;2023-08-31T00:31:21;3.90;;;0.60;;
51451;SDS011;37521;52.020;-1.740;2023-08-31T00:33:51;1.58;;;0.68;;
51451;SDS011;37521;52.020;-1.740;2023-08-31T00:36:19;0.77;;;0.50;;
51451;SDS011;37521;52.020;-1.740;2023-08-31T00:38:48;1.10;;;0.60;;
51451;SDS011;37521;52.020;-1.740;2023-08-31T00:41:16;2.22;;;0.45;;
51451;SDS011;37521;52.020;-1.740;2023-08-31T00:43:45;1.00;;;0.90;;
51451;SDS011;37521;52.020;-1.740;2023-08-31T00:46:13;2.33;;;0.70;;
51451;SDS011;37521;52.020;-1.740;2023-08-31T00:48:45;1.27;;;0.85;;
51451;SDS011;37521;52.020;-1.740;2023-08-31T00:51:16;1.23;;;1.00;;
51451;SDS011;37521;52.020;-1.740;2023-08-31T00:53:45;0.63;;;0.60;;
51451;SDS011;37521;52.020;-1.740;2023-08-31T00:56:16;5.25;;;0.80;;
51451;SDS011;37521;52.020;-1.740;2023-08-31T00:58:46;2.10;;;0.68;;
51451;SDS011;37521;52.020;-1.740;2023-08-31T01:01:17;1.30;;;0.93;;
51451;SDS011;37521;52.020;-1.740;2023-08-31T01:03:54;1.60;;;0.50;;
51451;SDS011;37521;52.020;-1.740;2023-08-31T01:06:35;0.57;;;0.25;;
51451;SDS011;37521;52.020;-1.740;2023-08-31T01:09:11;2.63;;;0.80;;
51451;SDS011;37521;52.020;-1.740;2023-08-31T01:11:49;1.38;;;0.93;;
51451;SDS011;37521;52.020;-1.740;2023-08-31T01:14:27;2.22;;;0.80;;
51451;SDS011;37521;52.020;-1.740;2023-08-31T01:17:06;0.65;;;0.65;;
51451;SDS011;37521;52.020;-1.740;2023-08-31T01:19:44;2.83;;;0.50;;
51451;SDS011;37521;52.020;-1.740;2023-08-31T01:22:18;0.32;;;0.32;;
51451;SDS011;37521;52.020;-1.740;2023-08-31T01:24:57;0.95;;;0.43;;
51451;SDS011;37521;52.020;-1.740;2023-08-31T01:27:28;2.35;;;0.88;;
51451;SDS011;37521;52.020;-1.740;2023-08-31T01:29:57;1.95;;;0.50;;
51451;SDS011;37521;52.020;-1.740;2023-08-31T01:32:25;0.90;;;0.70;;
51451;SDS011;37521;52.020;-1.740;2023-08-31T01:34:55;2.05;;;0.77;;
51451;SDS011;37521;52.020;-1.740;2023-08-31T01:37:27;2.13;;;0.60;;
51451;SDS011;37521;52.020;-1.740;2023-08-31T01:40:04;0.73;;;0.45;;
51451;SDS011;37521;52.020;-1.740;2023-08-31T01:42:41;0.40;;;0.40;;
51451;SDS011;37521;52.020;-1.740;2023-08-31T01:45:11;2.47;;;0.52;;
51451;SDS011;37521;52.020;-1.740;2023-08-31T01:47:47;0.57;;;0.40;;
51451;SDS011;37521;52.020;-1.740;2023-08-31T01:50:17;0.45;;;0.43;;
51451;SDS011;37521;52.020;-1.740;2023-08-31T01:52:46;0.70;;;0.40;;
51451;SDS011;37521;52.020;-1.740;2023-08-31T01:55:16;0.80;;;0.30;;
51451;SDS011;37521;52.020;-1.740;2023-08-31T01:57:45;3.03;;;0.82;;
51451;SDS011;37521;52.020;-1.740;2023-08-31T02:00:19;0.60;;;0.50;;
51451;SDS011;37521;52.020;-1.740;2023-08-31T02:02:48;0.50;;;0.50;;
51451;SDS011;37521;52.020;-1.740;2023-08-31T02:05:17;0.50;;;0.50;;
51451;SDS011;37521;52.020;-1.740;2023-08-31T02:07:45;0.98;;;0.90;;
51451;SDS011;37521;52.020;-1.740;2023-08-31T02:10:14;1.10;;;0.77;;
51451;SDS011;37521;52.020;-1.740;2023-08-31T02:12:44;1.40;;;0.60;;
51451;SDS011;37521;52.020;-1.740;2023-08-31T02:15:12;1.27;;;0.63;;
51451;SDS011;37521;52.020;-1.740;2023-08-31T02:17:40;0.93;;;0.47;;
51451;SDS011;37521;52.020;-1.740;2023-08-31T02:20:10;0.40;;;0.40;;
51451;SDS011;37521;52.020;-1.740;2023-08-31T02:22:40;0.73;;;0.52;;
51451;SDS011;37521;52.020;-1.740;2023-08-31T02:25:09;1.10;;;0.68;;
51451;SDS011;37521;52.020;-1.740;2023-08-31T02:27:40;0.50;;;0.40;;
51451;SDS011;37521;52.020;-1.740;2023-08-31T02:30:09;0.85;;;0.40;;
51451;SDS011;37521;52.020;-1.740;2023-08-31T02:32:37;0.68;;;0.52;;
51451;SDS011;37521;52.020;-1.740;2023-08-31T02:35:06;1.05;;;0.82;;
51451;SDS011;37521;52.020;-1.740;2023-08-31T02:37:35;2.53;;;0.52;;
51451;SDS011;37521;52.020;-1.740;2023-08-31T02:40:03;0.77;;;0.50;;
51451;SDS011;37521;52.020;-1.740;2023-08-31T02:42:34;1.20;;;0.47;;
51451;SDS011;37521;52.020;-1.740;2023-08-31T02:45:05;1.35;;;0.73;;
51451;SDS011;37521;52.020;-1.740;2023-08-31T02:47:34;0.60;;;0.60;;
51451;SDS011;37521;52.020;-1.740;2023-08-31T02:50:03;0.70;;;0.50;;
51451;SDS011;37521;52.020;-1.740;2023-08-31T02:52:32;0.70;;;0.50;;
51451;SDS011;37521;52.020;-1.740;2023-08-31T02:55:00;0.60;;;0.60;;
51451;SDS011;37521;52.020;-1.740;2023-08-31T02:57:29;0.77;;;0.57;;
51451;SDS011;37521;52.020;-1.740;2023-08-31T02:59:57;0.40;;;0.40;;
51451;SDS011;37521;52.020;-1.740;2023-08-31T03:02:28;0.85;;;0.45;;
51451;SDS011;37521;52.020;-1.740;2023-08-31T03:04:56;1.85;;;0.90;;
51451;SDS011;37521;52.020;-1.740;2023-08-31T03:07:25;1.38;;;0.60;;
51451;SDS011;37521;52.020;-1.740;2023-08-31T03:09:53;2.08;;;0.73;;
51451;SDS011;37521;52.020;-1.740;2023-08-31T03:12:22;2.25;;;1.00;;
51451;SDS011;37521;52.020;-1.740;2023-08-31T03:14:50;2.30;;;0.82;;
51451;SDS011;37521;52.020;-1.740;2023-08-31T03:17:18;0.88;;;0.82;;
51451;SDS011;37521;52.020;-1.740;2023-08-31T03:19:48;0.68;;;0.55;;
51451;SDS011;37521;52.020;-1.740;2023-08-31T03:22:17;0.82;;;0.70;;
51451;SDS011;37521;52.020;-1.740;2023-08-31T03:24:45;0.73;;;0.52;;
51451;SDS011;37521;52.020;-1.740;2023-08-31T03:27:14;3.92;;;0.82;;
51451;SDS011;37521;52.020;-1.740;2023-08-31T03:29:43;1.20;;;0.88;;
51451;SDS011;37521;52.020;-1.740;2023-08-31T03:32:12;0.90;;;0.70;;
51451;SDS011;37521;52.020;-1.740;2023-08-31T03:34:41;8.05;;;1.17;;
51451;SDS011;37521;52.020;-1.740;2023-08-31T03:37:12;2.70;;;0.70;;
51451;SDS011;37521;52.020;-1.740;2023-08-31T03:39:40;0.75;;;0.50;;
51451;SDS011;37521;52.020;-1.740;2023-08-31T03:42:09;0.80;;;0.68;;
51451;SDS011;37521;52.020;-1.740;2023-08-31T03:44:37;0.70;;;0.70;;
51451;SDS011;37521;52.020;-1.740;2023-08-31T03:47:06;1.02;;;0.50;;
51451;SDS011;37521;52.020;-1.740;2023-08-31T03:49:34;1.30;;;0.88;;
51451;SDS011;37521;52.020;-1.740;2023-08-31T03:52:03;0.77;;;0.60;;
51451;SDS011;37521;52.020;-1.740;2023-08-31T03:54:33;2.47;;;0.73;;
51451;SDS011;37521;52.020;-1.740;2023-08-31T03:57:02;0.95;;;0.60;;
51451;SDS011;37521;52.020;-1.740;2023-08-31T03:59:30;1.55;;;0.70;;
51451;SDS011;37521;52.020;-1.740;2023-08-31T04:01:59;1.17;;;1.00;;
51451;SDS011;37521;52.020;-1.740;2023-08-31T04:04:29;1.73;;;0.80;;
51451;SDS011;37521;52.020;-1.740;2023-08-31T04:06:58;0.57;;;0.52;;
51451;SDS011;37521;52.020;-1.740;2023-08-31T04:09:26;0.93;;;0.47;;
51451;SDS011;37521;52.020;-1.740;2023-08-31T04:11:56;1.05;;;0.50;;
51451;SDS011;37521;52.020;-1.740;2023-08-31T04:14:25;0.60;;;0.60;;
51451;SDS011;37521;52.020;-1.740;2023-08-31T04:16:54;1.00;;;0.60;;
51451;SDS011;37521;52.020;-1.740;2023-08-31T04:19:22;1.00;;;0.90;;
51451;SDS011;37521;52.020;-1.740;2023-08-31T04:21:51;0.52;;;0.52;;
51451;SDS011;37521;52.020;-1.740;2023-08-31T04:24:19;1.13;;;0.70;;
51451;SDS011;37521;52.020;-1.740;2023-08-31T04:26:47;2.13;;;0.65;;
51451;SDS011;37521;52.020;-1.740;2023-08-31T04:29:19;1.17;;;0.68;;
51451;SDS011;37521;52.020;-1.740;2023-08-31T04:31:47;0.82;;;0.55;;
51451;SDS011;37521;52.020;-1.740;2023-08-31T04:34:16;0.90;;;0.73;;
51451;SDS011;37521;52.020;-1.740;2023-08-31T04:36:44;0.47;;;0.47;;
51451;SDS011;37521;52.020;-1.740;2023-08-31T04:39:13;1.73;;;0.75;;
51451;SDS011;37521;52.020;-1.740;2023-08-31T04:41:41;0.40;;;0.40;;
51451;SDS011;37521;52.020;-1.740;2023-08-31T04:44:10;0.73;;;0.52;;
51451;SDS011;37521;52.020;-1.740;2023-08-31T04:46:40;0.57;;;0.52;;
51451;SDS011;37521;52.020;-1.740;2023-08-31T04:49:08;1.83;;;0.98;;
51451;SDS011;37521;52.020;-1.740;2023-08-31T04:51:36;2.30;;;1.00;;
51451;SDS011;37521;52.020;-1.740;2023-08-31T04:54:06;0.68;;;0.68;;
51451;SDS011;37521;52.020;-1.740;2023-08-31T04:56:35;0.60;;;0.60;;
51451;SDS011;37521;52.020;-1.740;2023-08-31T04:59:04;0.75;;;0.60;;
51451;SDS011;37521;52.020;-1.740;2023-08-31T05:01:32;3.25;;;0.60;;
51451;SDS011;37521;52.020;-1.740;2023-08-31T05:04:02;0.82;;;0.80;;
51451;SDS011;37521;52.020;-1.740;2023-08-31T05:06:31;1.58;;;0.60;;
51451;SDS011;37521;52.020;-1.740;2023-08-31T05:09:00;1.75;;;1.10;;
51451;SDS011;37521;52.020;-1.740;2023-08-31T05:11:29;1.45;;;0.55;;
51451;SDS011;37521;52.020;-1.740;2023-08-31T05:13:57;0.75;;;0.75;;
51451;SDS011;37521;52.020;-1.740;2023-08-31T05:16:26;0.68;;;0.52;;
51451;SDS011;37521;52.020;-1.740;2023-08-31T05:18:54;3.30;;;1.00;;
51451;SDS011;37521;52.020;-1.740;2023-08-31T05:21:24;1.38;;;0.63;;
51451;SDS011;37521;52.020;-1.740;2023-08-31T05:23:53;0.90;;;0.90;;
51451;SDS011;37521;52.020;-1.740;2023-08-31T05:26:21;1.50;;;1.00;;
51451;SDS011;37521;52.020;-1.740;2023-08-31T05:28:50;0.70;;;0.55;;
51451;SDS011;37521;52.020;-1.740;2023-08-31T05:31:18;2.40;;;0.65;;
51451;SDS011;37521;52.020;-1.740;2023-08-31T05:33:47;1.00;;;0.63;;
51451;SDS011;37521;52.020;-1.740;2023-08-31T05:36:15;0.70;;;0.70;;
51451;SDS011;37521;52.020;-1.740;2023-08-31T05:38:45;0.60;;;0.60;;
51451;SDS011;37521;52.020;-1.740;2023-08-31T05:41:13;0.68;;;0.60;;
51451;SDS011;37521;52.020;-1.740;2023-08-31T05:43:43;0.73;;;0.73;;
51451;SDS011;37521;52.020;-1.740;2023-08-31T05:46:12;1.00;;;0.60;;
51451;SDS011;37521;52.020;-1.740;2023-08-31T05:48:40;2.63;;;0.57;;
51451;SDS011;37521;52.020;-1.740;2023-08-31T05:51:09;1.20;;;0.80;;
51451;SDS011;37521;52.020;-1.740;2023-08-31T05:53:38;1.17;;;0.60;;
51451;SDS011;37521;52.020;-1.740;2023-08-31T05:56:08;0.98;;;0.80;;
51451;SDS011;37521;52.020;-1.740;2023-08-31T05:58:36;2.00;;;1.80;;
51451;SDS011;37521;52.020;-1.740;2023-08-31T06:01:05;1.30;;;0.80;;
51451;SDS011;37521;52.020;-1.740;2023-08-31T06:03:33;1.05;;;0.68;;
51451;SDS011;37521;52.020;-1.740;2023-08-31T06:06:03;2.25;;;0.85;;
51451;SDS011;37521;52.020;-1.740;2023-08-31T06:08:31;0.77;;;0.63;;
51451;SDS011;37521;52.020;-1.740;2023-08-31T06:10:59;3.92;;;1.40;;
51451;SDS011;37521;52.020;-1.740;2023-08-31T06:13:29;1.63;;;1.10;;
51451;SDS011;37521;52.020;-1.740;2023-08-31T06:15:58;1.52;;;0.90;;
51451;SDS011;37521;52.020;-1.740;2023-08-31T06:18:26;2.25;;;1.00;;
51451;SDS011;37521;52.020;-1.740;2023-08-31T06:20:55;0.73;;;0.70;;
51451;SDS011;37521;52.020;-1.740;2023-08-31T06:23:23;1.00;;;1.00;;
51451;SDS011;37521;52.020;-1.740;2023-08-31T06:25:52;2.70;;;1.15;;
51451;SDS011;37521;52.020;-1.740;2023-08-31T06:28:20;1.05;;;0.93;;
51451;SDS011;37521;52.020;-1.740;2023-08-31T06:30:50;1.15;;;0.82;;
51451;SDS011;37521;52.020;-1.740;2023-08-31T06:33:18;3.10;;;1.13;;
51451;SDS011;37521;52.020;-1.740;2023-08-31T06:35:47;1.50;;;1.33;;
51451;SDS011;37521;52.020;-1.740;2023-08-31T06:38:19;1.48;;;1.05;;
51451;SDS011;37521;52.020;-1.740;2023-08-31T06:40:48;2.95;;;1.10;;
51451;SDS011;37521;52.020;-1.740;2023-08-31T06:43:16;4.78;;;1.10;;
51451;SDS011;37521;52.020;-1.740;2023-08-31T06:45:46;2.60;;;1.38;;
51451;SDS011;37521;52.020;-1.740;2023-08-31T06:48:15;3.13;;;1.27;;
51451;SDS011;37521;52.020;-1.740;2023-08-31T06:50:44;3.30;;;1.17;;
51451;SDS011;37521;52.020;-1.740;2023-08-31T06:53:13;3.20;;;1.00;;
51451;SDS011;37521;52.020;-1.740;2023-08-31T06:55:41;3.10;;;1.33;;
51451;SDS011;37521;52.020;-1.740;2023-08-31T06:58:10;1.67;;;1.23;;
51451;SDS011;37521;52.020;-1.740;2023-08-31T07:00:39;1.58;;;1.13;;
51451;SDS011;37521;52.020;-1.740;2023-08-31T07:03:07;1.02;;;0.88;;
51451;SDS011;37521;52.020;-1.740;2023-08-31T07:05:41;2.40;;;1.15;;
51451;SDS011;37521;52.020;-1.740;2023-08-31T07:08:10;1.00;;;0.90;;
51451;SDS011;37521;52.020;-1.740;2023-08-31T07:10:38;1.30;;;1.15;;
51451;SDS011;37521;52.020;-1.740;2023-08-31T07:13:07;2.58;;;1.05;;
51451;SDS011;37521;52.020;-1.740;2023-08-31T07:15:36;1.45;;;1.15;;
51451;SDS011;37521;52.020;-1.740;2023-08-31T07:18:04;1.48;;;1.15;;
51451;SDS011;37521;52.020;-1.740;2023-08-31T07:20:33;1.73;;;1.23;;
51451;SDS011;37521;52.020;-1.740;2023-08-31T07:23:03;3.70;;;1.30;;
51451;SDS011;37521;52.020;-1.740;2023-08-31T07:25:31;1.67;;;1.25;;
51451;SDS011;37521;52.020;-1.740;2023-08-31T07:28:00;0.95;;;0.95;;
51451;SDS011;37521;52.020;-1.740;2023-08-31T07:30:29;2.75;;;1.38;;
51451;SDS011;37521;52.020;-1.740;2023-08-31T07:32:59;2.47;;;0.98;;
51451;SDS011;37521;52.020;-1.740;2023-08-31T07:35:42;1.02;;;0.90;;
51451;SDS011;37521;52.020;-1.740;2023-08-31T07:38:12;2.80;;;0.88;;
51451;SDS011;37521;52.020;-1.740;2023-08-31T07:40:44;1.05;;;0.95;;
51451;SDS011;37521;52.020;-1.740;2023-08-31T07:43:12;5.53;;;0.98;;
51451;SDS011;37521;52.020;-1.740;2023-08-31T07:45:41;1.40;;;1.30;;
51451;SDS011;37521;52.020;-1.740;2023-08-31T07:48:10;1.63;;;1.10;;
51451;SDS011;37521;52.020;-1.740;2023-08-31T07:50:40;2.22;;;1.20;;
51451;SDS011;37521;52.020;-1.740;2023-08-31T07:53:08;2.10;;;1.27;;
51451;SDS011;37521;52.020;-1.740;2023-08-31T07:55:38;2.85;;;0.95;;
51451;SDS011;37521;52.020;-1.740;2023-08-31T07:58:07;5.00;;;1.80;;
51451;SDS011;37521;52.020;-1.740;2023-08-31T08:00:35;3.00;;;1.60;;
51451;SDS011;37521;52.020;-1.740;2023-08-31T08:03:04;1.10;;;0.85;;
51451;SDS011;37521;52.020;-1.740;2023-08-31T08:05:32;1.88;;;1.00;;
51451;SDS011;37521;52.020;-1.740;2023-08-31T08:08:01;1.38;;;1.00;;
51451;SDS011;37521;52.020;-1.740;2023-08-31T08:10:30;2.28;;;1.10;;
51451;SDS011;37521;52.020;-1.740;2023-08-31T08:13:00;3.03;;;1.30;;
51451;SDS011;37521;52.020;-1.740;2023-08-31T08:15:28;2.00;;;0.85;;
51451;SDS011;37521;52.020;-1.740;2023-08-31T08:18:01;0.83;;;0.77;;
51451;SDS011;37521;52.020;-1.740;2023-08-31T08:20:29;1.50;;;1.17;;
51451;SDS011;37521;52.020;-1.740;2023-08-31T08:23:00;1.02;;;0.80;;
51451;SDS011;37521;52.020;-1.740;2023-08-31T08:25:32;1.50;;;0.85;;
51451;SDS011;37521;52.020;-1.740;2023-08-31T08:28:02;3.17;;;1.30;;
51451;SDS011;37521;52.020;-1.740;2023-08-31T08:30:31;2.90;;;1.00;;
51451;SDS011;37521;52.020;-1.740;2023-08-31T08:32:59;2.63;;;1.05;;
51451;SDS011;37521;52.020;-1.740;2023-08-31T08:35:27;1.88;;;1.17;;
51451;SDS011;37521;52.020;-1.740;2023-08-31T08:37:56;2.88;;;1.23;;
51451;SDS011;37521;52.020;-1.740;2023-08-31T08:40:24;0.85;;;0.85;;
51451;SDS011;37521;52.020;-1.740;2023-08-31T08:42:53;1.63;;;1.30;;
51451;SDS011;37521;52.020;-1.740;2023-08-31T08:45:24;2.10;;;1.13;;
51451;SDS011;37521;52.020;-1.740;2023-08-31T08:47:54;4.03;;;1.50;;
51451;SDS011;37521;52.020;-1.740;2023-08-31T08:50:25;1.02;;;1.00;;
51451;SDS011;37521;52.020;-1.740;2023-08-31T08:52:55;3.95;;;1.33;;
51451;SDS011;37521;52.020;-1.740;2023-08-31T08:55:24;2.70;;;1.42;;
51451;SDS011;37521;52.020;-1.740;2023-08-31T08:57:52;1.08;;;0.90;;
51451;SDS011;37521;52.020;-1.740;2023-08-31T09:00:21;1.75;;;1.25;;
51451;SDS011;37521;52.020;-1.740;2023-08-31T09:02:50;2.58;;;1.27;;
51451;SDS011;37521;52.020;-1.740;2023-08-31T09:05:19;2.75;;;1.17;;
51451;SDS011;37521;52.020;-1.740;2023-08-31T09:08:00;3.75;;;1.15;;
51451;SDS011;37521;52.020;-1.740;2023-08-31T09:10:35;2.83;;;2.38;;
51451;SDS011;37521;52.020;-1.740;2023-08-31T09:13:05;3.90;;;1.08;;
51451;SDS011;37521;52.020;-1.740;2023-08-31T09:15:36;2.17;;;1.35;;
51451;SDS011;37521;52.020;-1.740;2023-08-31T09:18:12;1.98;;;1.30;;
51451;SDS011;37521;52.020;-1.740;2023-08-31T09:20:43;2.47;;;1.38;;
51451;SDS011;37521;52.020;-1.740;2023-08-31T09:23:12;3.75;;;1.38;;
51451;SDS011;37521;52.020;-1.740;2023-08-31T09:25:42;3.45;;;1.67;;
51451;SDS011;37521;52.020;-1.740;2023-08-31T09:28:12;1.90;;;1.65;;
51451;SDS011;37521;52.020;-1.740;2023-08-31T09:30:42;4.47;;;2.55;;
51451;SDS011;37521;52.020;-1.740;2023-08-31T09:33:14;5.45;;;2.50;;
51451;SDS011;37521;52.020;-1.740;2023-08-31T09:35:48;7.22;;;2.72;;
51451;SDS011;37521;52.020;-1.740;2023-08-31T09:38:18;5.22;;;2.38;;
51451;SDS011;37521;52.020;-1.740;2023-08-31T09:40:47;5.75;;;2.50;;
51451;SDS011;37521;52.020;-1.740;2023-08-31T09:43:19;6.10;;;3.22;;
51451;SDS011;37521;52.020;-1.740;2023-08-31T09:45:48;6.80;;;3.67;;
51451;SDS011;37521;52.020;-1.740;2023-08-31T09:48:19;5.45;;;2.63;;
51451;SDS011;37521;52.020;-1.740;2023-08-31T09:50:50;6.55;;;2.70;;
51451;SDS011;37521;52.020;-1.740;2023-08-31T09:53:19;4.20;;;2.17;;
51451;SDS011;37521;52.020;-1.740;2023-08-31T09:55:48;3.50;;;1.88;;
51451;SDS011;37521;52.020;-1.740;2023-08-31T09:58:20;4.30;;;2.10;;
51451;SDS011;37521;52.020;-1.740;2023-08-31T10:00:50;3.42;;;2.22;;
51451;SDS011;37521;52.020;-1.740;2023-08-31T10:03:21;5.20;;;2.75;;
51451;SDS011;37521;52.020;-1.740;2023-08-31T10:05:49;4.50;;;2.70;;
51451;SDS011;37521;52.020;-1.740;2023-08-31T10:08:18;7.57;;;2.70;;
51451;SDS011;37521;52.020;-1.740;2023-08-31T10:10:46;3.63;;;2.33;;
51451;SDS011;37521;52.020;-1.740;2023-08-31T10:13:15;4.97;;;1.95;;
51451;SDS011;37521;52.020;-1.740;2023-08-31T10:15:44;2.47;;;2.15;;
51451;SDS011;37521;52.020;-1.740;2023-08-31T10:18:16;3.38;;;2.17;;
51451;SDS011;37521;52.020;-1.740;2023-08-31T10:20:47;2.25;;;1.45;;
51451;SDS011;37521;52.020;-1.740;2023-08-31T10:23:16;3.20;;;2.10;;
51451;SDS011;37521;52.020;-1.740;2023-08-31T10:26:00;3.55;;;1.50;;
51451;SDS011;37521;52.020;-1.740;2023-08-31T10:28:30;1.27;;;1.17;;
51451;SDS011;37521;52.020;-1.740;2023-08-31T10:31:09;2.67;;;1.55;;
51451;SDS011;37521;52.020;-1.740;2023-08-31T10:33:43;1.48;;;1.10;;
51451;SDS011;37521;52.020;-1.740;2023-08-31T10:36:14;1.70;;;1.00;;
51451;SDS011;37521;52.020;-1.740;2023-08-31T10:38:46;3.90;;;1.35;;
51451;SDS011;37521;52.020;-1.740;2023-08-31T10:41:18;4.43;;;1.55;;
51451;SDS011;37521;52.020;-1.740;2023-08-31T10:43:49;1.13;;;1.05;;
51451;SDS011;37521;52.020;-1.740;2023-08-31T10:46:25;2.38;;;1.40;;
51451;SDS011;37521;52.020;-1.740;2023-08-31T10:48:56;2.35;;;0.95;;
51451;SDS011;37521;52.020;-1.740;2023-08-31T10:51:27;2.47;;;1.30;;
51451;SDS011;37521;52.020;-1.740;2023-08-31T10:54:07;2.88;;;1.00;;
51451;SDS011;37521;52.020;-1.740;2023-08-31T10:59:41;1.77;;;1.38;;
51451;SDS011;37521;52.020;-1.740;2023-08-31T11:02:26;3.65;;;1.95;;
51451;SDS011;37521;52.020;-1.740;2023-08-31T11:04:59;2.38;;;1.00;;
51451;SDS011;37521;52.020;-1.740;2023-08-31T11:07:32;2.80;;;1.13;;
51451;SDS011;37521;52.020;-1.740;2023-08-31T11:10:07;3.90;;;1.13;;
51451;SDS011;37521;52.020;-1.740;2023-08-31T11:12:38;2.97;;;1.38;;
51451;SDS011;37521;52.020;-1.740;2023-08-31T11:15:06;2.63;;;1.30;;
51451;SDS011;37521;52.020;-1.740;2023-08-31T11:17:36;1.33;;;0.82;;
51451;SDS011;37521;52.020;-1.740;2023-08-31T11:20:07;2.63;;;1.27;;
51451;SDS011;37521;52.020;-1.740;2023-08-31T11:22:41;0.85;;;0.85;;
51451;SDS011;37521;52.020;-1.740;2023-08-31T11:25:12;2.08;;;1.20;;
51451;SDS011;37521;52.020;-1.740;2023-08-31T11:27:52;0.88;;;0.85;;
51451;SDS011;37521;52.020;-1.740;2023-08-31T11:30:24;1.00;;;1.00;;
51451;SDS011;37521;52.020;-1.740;2023-08-31T11:32:53;2.65;;;1.17;;
51451;SDS011;37521;52.020;-1.740;2023-08-31T11:35:22;3.53;;;1.20;;
51451;SDS011;37521;52.020;-1.740;2023-08-31T11:37:55;2.75;;;1.00;;
51451;SDS011;37521;52.020;-1.740;2023-08-31T11:40:23;2.97;;;1.17;;
51451;SDS011;37521;52.020;-1.740;2023-08-31T11:42:54;2.88;;;0.90;;
51451;SDS011;37521;52.020;-1.740;2023-08-31T11:45:23;1.50;;;1.10;;
51451;SDS011;37521;52.020;-1.740;2023-08-31T11:47:52;0.98;;;0.70;;
51451;SDS011;37521;52.020;-1.740;2023-08-31T11:50:22;1.75;;;0.98;;
51451;SDS011;37521;52.020;-1.740;2023-08-31T11:52:53;0.90;;;0.73;;
51451;SDS011;37521;52.020;-1.740;2023-08-31T11:55:22;0.93;;;0.70;;
51451;SDS011;37521;52.020;-1.740;2023-08-31T11:57:50;1.15;;;0.57;;
51451;SDS011;37521;52.020;-1.740;2023-08-31T12:00:21;2.10;;;0.80;;
51451;SDS011;37521;52.020;-1.740;2023-08-31T12:02:55;0.93;;;0.60;;
51451;SDS011;37521;52.020;-1.740;2023-08-31T12:05:25;3.88;;;0.95;;
51451;SDS011;37521;52.020;-1.740;2023-08-31T12:07:55;1.15;;;0.90;;
51451;SDS011;37521;52.020;-1.740;2023-08-31T12:10:24;1.85;;;1.00;;
51451;SDS011;37521;52.020;-1.740;2023-08-31T12:12:54;1.58;;;0.88;;
51451;SDS011;37521;52.020;-1.740;2023-08-31T12:15:35;1.85;;;0.98;;
51451;SDS011;37521;52.020;-1.740;2023-08-31T12:18:07;1.95;;;1.00;;
51451;SDS011;37521;52.020;-1.740;2023-08-31T12:20:42;0.50;;;0.50;;
51451;SDS011;37521;52.020;-1.740;2023-08-31T12:23:13;0.77;;;0.70;;
51451;SDS011;37521;52.020;-1.740;2023-08-31T12:25:46;0.80;;;0.80;;
51451;SDS011;37521;52.020;-1.740;2023-08-31T12:28:16;1.98;;;0.70;;
51451;SDS011;37521;52.020;-1.740;2023-08-31T12:30:46;1.17;;;1.00;;
51451;SDS011;37521;52.020;-1.740;2023-08-31T12:33:16;1.98;;;0.82;;
51451;SDS011;37521;52.020;-1.740;2023-08-31T12:35:46;3.25;;;0.95;;
51451;SDS011;37521;52.020;-1.740;2023-08-31T12:38:16;0.77;;;0.65;;
51451;SDS011;37521;52.020;-1.740;2023-08-31T12:40:45;0.75;;;0.50;;
51451;SDS011;37521;52.020;-1.740;2023-08-31T12:43:14;1.85;;;0.75;;
51451;SDS011;37521;52.020;-1.740;2023-08-31T12:45:43;0.68;;;0.55;;
51451;SDS011;37521;52.020;-1.740;2023-08-31T12:48:12;1.27;;;0.70;;
51451;SDS011;37521;52.020;-1.740;2023-08-31T12:50:41;0.82;;;0.80;;
51451;SDS011;37521;52.020;-1.740;2023-08-31T12:53:09;1.20;;;0.70;;
51451;SDS011;37521;52.020;-1.740;2023-08-31T12:55:39;2.13;;;1.10;;
51451;SDS011;37521;52.020;-1.740;2023-08-31T12:58:08;1.58;;;0.80;;
51451;SDS011;37521;52.020;-1.740;2023-08-31T13:00:36;1.00;;;0.60;;
51451;SDS011;37521;52.020;-1.740;2023-08-31T13:03:05;1.45;;;0.70;;
51451;SDS011;37521;52.020;-1.740;2023-08-31T13:05:34;3.15;;;1.27;;
51451;SDS011;37521;52.020;-1.740;2023-08-31T13:08:06;1.30;;;0.70;;
51451;SDS011;37521;52.020;-1.740;2023-08-31T13:10:35;1.70;;;1.02;;
51451;SDS011;37521;52.020;-1.740;2023-08-31T13:13:05;2.35;;;0.95;;
51451;SDS011;37521;52.020;-1.740;2023-08-31T13:15:34;2.10;;;1.00;;
51451;SDS011;37521;52.020;-1.740;2023-08-31T13:18:03;0.73;;;0.73;;
51451;SDS011;37521;52.020;-1.740;2023-08-31T13:20:32;1.13;;;0.75;;
51451;SDS011;37521;52.020;-1.740;2023-08-31T13:23:00;3.15;;;0.98;;
51451;SDS011;37521;52.020;-1.740;2023-08-31T13:25:29;1.73;;;0.90;;
51451;SDS011;37521;52.020;-1.740;2023-08-31T13:27:59;1.75;;;1.25;;
51451;SDS011;37521;52.020;-1.740;2023-08-31T13:30:29;1.83;;;1.10;;
51451;SDS011;37521;52.020;-1.740;2023-08-31T13:32:59;2.83;;;1.25;;
51451;SDS011;37521;52.020;-1.740;2023-08-31T13:35:27;0.95;;;0.88;;
51451;SDS011;37521;52.020;-1.740;2023-08-31T13:37:56;4.85;;;2.33;;
51451;SDS011;37521;52.020;-1.740;2023-08-31T13:40:24;1.90;;;1.00;;
51451;SDS011;37521;52.020;-1.740;2023-08-31T13:42:53;1.42;;;0.80;;
51451;SDS011;37521;52.020;-1.740;2023-08-31T13:45:23;2.20;;;1.10;;
51451;SDS011;37521;52.020;-1.740;2023-08-31T13:47:53;2.67;;;1.08;;
51451;SDS011;37521;52.020;-1.740;2023-08-31T13:50:22;0.90;;;0.90;;
51451;SDS011;37521;52.020;-1.740;2023-08-31T13:52:54;1.45;;;0.98;;
51451;SDS011;37521;52.020;-1.740;2023-08-31T13:55:22;2.80;;;1.17;;
51451;SDS011;37521;52.020;-1.740;2023-08-31T13:57:51;1.10;;;1.00;;
51451;SDS011;37521;52.020;-1.740;2023-08-31T14:00:19;5.20;;;1.65;;
51451;SDS011;37521;52.020;-1.740;2023-08-31T14:02:48;1.17;;;1.05;;
51451;SDS011;37521;52.020;-1.740;2023-08-31T14:05:18;1.30;;;1.20;;
51451;SDS011;37521;52.020;-1.740;2023-08-31T14:07:47;1.75;;;1.45;;
51451;SDS011;37521;52.020;-1.740;2023-08-31T14:10:15;4.32;;;1.15;;
51451;SDS011;37521;52.020;-1.740;2023-08-31T14:12:45;2.63;;;1.05;;
51451;SDS011;37521;52.020;-1.740;2023-08-31T14:15:15;0.90;;;0.90;;
51451;SDS011;37521;52.020;-1.740;2023-08-31T14:17:43;4.47;;;1.60;;
51451;SDS011;37521;52.020;-1.740;2023-08-31T14:20:12;4.88;;;1.40;;
51451;SDS011;37521;52.020;-1.740;2023-08-31T14:22:42;0.85;;;0.85;;
51451;SDS011;37521;52.020;-1.740;2023-08-31T14:25:12;1.23;;;1.13;;
51451;SDS011;37521;52.020;-1.740;2023-08-31T14:27:40;1.58;;;1.02;;
51451;SDS011;37521;52.020;-1.740;2023-08-31T14:30:09;2.58;;;1.08;;
51451;SDS011;37521;52.020;-1.740;2023-08-31T14:32:38;0.82;;;0.82;;
51451;SDS011;37521;52.020;-1.740;2023-08-31T14:35:06;1.10;;;1.00;;
51451;SDS011;37521;52.020;-1.740;2023-08-31T14:37:35;0.75;;;0.75;;
51451;SDS011;37521;52.020;-1.740;2023-08-31T14:40:05;2.72;;;0.88;;
51451;SDS011;37521;52.020;-1.740;2023-08-31T14:42:35;4.88;;;1.02;;
51451;SDS011;37521;52.020;-1.740;2023-08-31T14:45:04;0.60;;;0.60;;
51451;SDS011;37521;52.020;-1.740;2023-08-31T14:47:33;0.88;;;0.85;;
51451;SDS011;37521;52.020;-1.740;2023-08-31T14:50:02;4.07;;;0.93;;
51451;SDS011;37521;52.020;-1.740;2023-08-31T14:52:32;0.88;;;0.77;;